• Join FlightAware (Why Join?)
  • Login
  • US Flag GB Flag 
13:15 EDT


 

Airport Tracker/Info


-or-


 

Live Flight TrackerFlight Track Log ✈ SWA407 ✈ 09-Apr-2013 ✈ KTPA - KBUF

Flight Track Log - Related Links

Times and Time Zones

All times are in EDT time to prevent confusion due to time zone crossing. See the SWA407 flight status page for this flight to view local times or setup timezone preferences in your user account.

Time Position Orientation Groundspeed Altitude Reporting Facility
EDT Latitude Longitude Course Direction KTS MPH feet Rate Location/Type
15:40 27.9667 -82.5500 196° South 177 204 1,000  Level Tampa TRACON
15:40 27.9167 -82.5667 196° South 195 224 2,100 2,280 Climbing Tampa TRACON
15:41 27.8667 -82.6000 211° Southwest 268 308 5,200 3,000 Climbing Tampa TRACON
15:42 27.9000 -82.6667 300° West 296 341 8,400 2,520 Climbing Tampa TRACON
15:45 28.0953 -82.6314 North 320 368 13,500 2,400 Climbing Jacksonville Center
15:46 28.1975 -82.6122 North 348 400 16,400 2,520 Climbing Jacksonville Center
15:47 28.3061 -82.5931 North 372 428 18,600 2,100 Climbing Jacksonville Center
15:48 28.4189 -82.5858 North 394 453 20,700 2,100 Climbing Jacksonville Center
15:49 28.5356 -82.5878 359° North 406 467 22,800 2,040 Climbing Jacksonville Center
15:50 28.6567 -82.5922 358° North 422 486 24,800 1,680 Climbing Jacksonville Center
15:51 28.7756 -82.6014 356° North 422 486 26,200 1,440 Climbing Jacksonville Center
15:52 28.8989 -82.6197 353° North 427 491 27,700 1,440 Climbing Jacksonville Center
15:53 29.0261 -82.6383 353° North 440 506 29,100 1,680 Climbing Jacksonville Center
15:54 29.1536 -82.6572 353° North 451 519 31,100 1,800 Climbing Jacksonville Center
15:55 29.2789 -82.6758 353° North 451 519 32,700 1,380 Climbing Jacksonville Center
15:56 29.4019 -82.6900 354° North 451 519 33,900 600 Climbing Jacksonville Center
15:57 29.5294 -82.6969 357° North 451 519 34,000 300 Climbing Jacksonville Center
15:58 29.6567 -82.6942 North 451 519 34,600 480 Climbing Jacksonville Center
15:59 29.7800 -82.6939 360° North 446 513 35,000 180 Climbing Jacksonville Center
16:00 29.9072 -82.6936 360° North 446 513 35,000  Level Jacksonville Center
16:01 30.0450 -82.6789 North 446 513 35,000  Level Jacksonville Center
16:02 30.1722 -82.6644 North 446 513 35,000  Level Jacksonville Center
16:03 30.2997 -82.6519 North 451 519 35,000  Level Jacksonville Center
16:04 30.4311 -82.6397 North 462 532 35,000  Level Jacksonville Center
16:05 30.5461 -82.6319 North 462 532 35,000  Level Jacksonville Center
16:06 30.6756 -82.6197 North 462 532 35,000  Level Jacksonville Center
16:07 30.8028 -82.6047 North 462 532 35,000  Level Jacksonville Center
16:08 30.9300 -82.5922 North 462 532 35,000  Level Jacksonville Center
16:09 31.0617 -82.5797 North 462 532 35,000  Level Jacksonville Center
16:10 31.1889 -82.5672 North 462 532 35,000  Level Jacksonville Center
16:11 31.3142 -82.5522 North 462 532 35,000  Level Jacksonville Center
16:12 31.4394 -82.5369 North 462 532 35,000  Level Jacksonville Center
16:13 31.5625 -82.5244 North 456 525 35,000  Level Jacksonville Center
16:14 31.6878 -82.5117 North 451 519 35,000  Level Jacksonville Center
16:16 31.9394 -82.4897 North 433 498 35,000  Level Atlanta Center
16:17 32.0603 -82.4753 North 433 498 35,000  Level Atlanta Center
16:18 32.1853 -82.4633 North 433 498 35,000  Level Atlanta Center
16:19 32.3144 -82.4486 North 433 498 35,000  Level Atlanta Center
16:20 32.4353 -82.4367 North 433 498 35,000  Level Atlanta Center
16:21 32.5625 -82.4219 North 438 504 35,000  Level Atlanta Center
16:22 32.6833 -82.4100 North 443 510 35,000  Level Atlanta Center
16:23 32.8086 -82.3978 North 443 510 35,000  Level Atlanta Center
16:24 32.9189 -82.3833 North 443 510 35,000  Level Atlanta Center
16:25 33.0378 -82.3736 North 443 510 35,000  Level Atlanta Center
16:26 33.1628 -82.3589 North 443 510 35,000  Level Atlanta Center
16:27 33.2836 -82.3467 North 443 510 35,000  Level Atlanta Center
16:28 33.4172 -82.3339 North 435 501 35,000  Level Atlanta Center
16:29 33.5400 -82.3192 North 435 501 35,000  Level Atlanta Center
16:30 33.6608 -82.3067 North 438 504 35,000  Level Atlanta Center
16:31 33.7819 -82.2942 North 444 511 35,000  Level Atlanta Center
16:32 33.9047 -82.2817 North 442 509 35,000  Level Atlanta Center
16:33 34.0319 -82.2667 North 447 514 35,000  Level Atlanta Center
16:34 34.1528 -82.2542 North 442 509 35,000  Level Atlanta Center
16:35 34.2736 -82.2414 North 442 509 35,000  Level Atlanta Center
16:36 34.3967 -82.2261 North 442 509 35,000  Level Atlanta Center
16:37 34.5175 -82.2136 North 442 509 35,000  Level Atlanta Center
16:38 34.6361 -82.2008 North 442 509 35,000  Level Atlanta Center
16:39 34.7592 -82.1881 North 436 502 35,000  Level Atlanta Center
16:40 34.8778 -82.1753 North 436 502 35,000  Level Atlanta Center
16:41 34.9883 -82.1653 North 441 507 35,000  Level Atlanta Center
16:42 35.1092 -82.1522 North 436 502 35,000  Level Atlanta Center
16:43 35.2297 -82.1292 North 441 507 35,000  Level Atlanta Center
16:44 35.3458 -82.0858 17° North 441 507 35,000  Level Atlanta Center
16:46 35.5928 -81.9983 16° North 436 502 35,000  Level Atlanta Center
16:47 35.7089 -81.9569 16° North 430 495 35,000  Level Atlanta Center
16:48 35.8250 -81.9131 17° North 431 496 35,000  Level Atlanta Center
16:49 35.9431 -81.8714 16° North 431 496 35,000  Level Atlanta Center
16:50 36.0572 -81.8300 16° North 431 496 35,000  Level Atlanta Center
16:51 36.1753 -81.7856 17° North 431 496 35,000  Level Atlanta Center
16:52 36.2789 -81.7492 16° North 431 496 35,000  Level Atlanta Center
16:53 36.3947 -81.7044 17° North 431 496 35,000  Level Atlanta Center
16:54 36.5233 -81.6594 16° North 431 496 35,000  Level Atlanta Center
16:55 36.6289 -81.6200 17° North 431 496 35,000  Level Atlanta Center
16:56 36.7467 -81.5750 17° North 431 496 35,000  Level Atlanta Center
16:57 36.8689 -81.5297 17° North 425 489 35,000  Level Atlanta Center
16:59 37.1019 -81.4458 16° North 442 509 35,000  Level Indianapolis Center
17:00 37.2372 -81.3939 17° North 438 504 35,000  Level Indianapolis Center
17:01 37.3547 -81.3522 16° North 443 510 35,000  Level Indianapolis Center
17:02 37.4694 -81.3092 17° North 441 507 35,000  Level Indianapolis Center
17:03 37.5842 -81.2650 17° North 441 507 35,000  Level Indianapolis Center
17:04 37.7219 -81.2136 16° North 442 509 35,000  Level Indianapolis Center
17:05 37.8308 -81.1719 17° North 444 511 35,000  Level Indianapolis Center
17:06 37.9486 -81.1275 17° North 443 510 35,000  Level Indianapolis Center
17:07 38.0894 -81.0736 17° North 442 509 35,000  Level Indianapolis Center
17:08 38.2047 -81.0286 17° North 438 504 35,000  Level Indianapolis Center
17:09 38.3203 -80.9839 17° North 437 503 35,000  Level Indianapolis Center
17:10 38.4372 -80.9397 16° North 438 504 35,000  Level Indianapolis Center
17:11 38.5528 -80.8947 17° North 438 504 35,000  Level Indianapolis Center
17:12 38.6919 -80.8400 17° North 439 505 35,000  Level Indianapolis Center
17:13 38.8083 -80.7942 17° North 438 504 35,000  Level Indianapolis Center
17:14 38.9247 -80.7486 17° North 439 505 35,000  Level Indianapolis Center
17:15 39.0408 -80.7031 17° North 439 505 35,000  Level Indianapolis Center
17:16 39.1572 -80.6572 17° North 439 505 35,000  Level Indianapolis Center
17:17 39.2714 -80.6108 17° North 432 497 35,000  Level Indianapolis Center
17:18 39.3875 -80.5669 16° North 436 502 35,000  Level Cleveland Center
17:19 39.5064 -80.5428 North 436 502 35,000  Level Cleveland Center
17:20 39.6231 -80.5264 North 431 496 35,000  Level Cleveland Center
17:21 39.7400 -80.5075 North 426 490 35,000  Level Cleveland Center
17:22 39.8442 -80.4883 North 426 490 35,000  Level Cleveland Center
17:23 39.9586 -80.4369 19° North 421 484 35,000  Level Cleveland Center
17:24 40.0753 -80.3822 20° North 426 490 35,000 -300 Level Cleveland Center
17:25 40.1878 -80.3331 18° North 426 490 34,400 -840 Descending Cleveland Center
17:26 40.2961 -80.2864 18° North 419 482 33,400 -1,080 Descending Cleveland Center
17:27 40.4106 -80.2342 19° North 419 482 32,300 -1,020 Descending Cleveland Center
17:28 40.5231 -80.1842 19° North 424 488 31,400 -660 Descending Cleveland Center
17:29 40.6394 -80.1344 18° North 424 488 31,000 -240 Descending Cleveland Center
17:30 40.7519 -80.0814 20° North 424 488 31,000  Level Cleveland Center
17:31 40.8664 -80.0311 18° North 424 488 31,000 -60 Level Cleveland Center
17:32 40.9850 -79.9753 20° North 429 494 30,900 -600 Descending Cleveland Center
17:33 41.0950 -79.9025 26° Northeast 434 499 29,900 -900 Descending Cleveland Center
17:34 41.2028 -79.8297 27° Northeast 434 499 29,100 -900 Descending Cleveland Center
17:35 41.3150 -79.7592 25° Northeast 434 499 28,100 -1,020 Descending Cleveland Center
17:36 41.4292 -79.6942 23° Northeast 439 505 27,100 -600 Descending Cleveland Center
17:37 41.5475 -79.6481 16° North 439 505 27,000 -60 Descending Cleveland Center
17:38 41.6681 -79.6019 16° North 439 505 27,000 -360 Level Cleveland Center
17:39 41.7842 -79.5361 23° Northeast 439 505 26,300 -1,020 Descending Cleveland Center
17:40 41.8919 -79.4506 31° Northeast 439 505 25,000 -660 Descending Cleveland Center
17:41 41.9933 -79.3733 30° Northeast 429 494 25,000 -840 Level Cleveland Center
17:42 42.0944 -79.2961 30° Northeast 423 487 23,400 -2,340 Descending Cleveland Center
17:43 42.1981 -79.2239 27° Northeast 413 475 20,400 -3,240 Descending Cleveland Center
17:44 42.3078 -79.1767 18° North 408 470 17,000 -3,240 Descending Cleveland Center
17:45 42.4069 -79.0956 31° Northeast 408 470 14,000 -2,700 Descending Cleveland Center
17:46 42.5081 -79.0283 26° Northeast 413 475 11,700 -1,800 Descending Cleveland Center
17:47 42.5950 -78.9783 23° Northeast 374 430 10,400 -1,800 Descending Cleveland Center
17:48 42.6881 -78.9281 22° Northeast 327 376 8,100 -2,520 Descending Cleveland Center
17:49 42.7561 -78.8867 24° Northeast 297 342 5,400 -2,220 Descending Cleveland Center
17:50 42.8286 -78.8564 17° North 278 320 3,700 -1,380 Descending Cleveland Center
17:51 42.8844 -78.8208 25° Northeast 218 251 2,700 -1,140 Descending Cleveland Center
17:51 42.8833 -78.8000 94° East 165 190 2,200 -1,200 Descending Buffalo TRACON
17:52 42.9167 -78.7500 48° Northeast 140 161 1,100 -1,140 Descending Buffalo TRACON
17:54 42.9333 -78.7167 25° Northeast  Level FlightAware Approximate
18:01 42.9404 -78.7306 25° Northeast  Level Estimated